Destinations Kraków John Paul II International Airport

Kraków John Paul II International Airport (EPKK / KRK)

Flights to Kraków John Paul II International Airport

Flight number From ETE Dispatch
SPY-2272 EGFF Cardiff International Airport 02:45
SPY-2290 EGFF Cardiff International Airport 02:45
SPY-2446 EGPH Edinburgh Airport 02:45

Flights from Kraków John Paul II International Airport

Flight number To ETE Dispatch
SPY-2273 EGFF Cardiff International Airport 02:45
SPY-2291 EGFF Cardiff International Airport 02:45
SPY-2447 EGPH Edinburgh Airport 02:45
About

Kraków John Paul II International Airport facts

Kraków John Paul II International Airport is located in Krakow at an elevation of 241.1 meters or 791 feet.

Currently, Speedy Airlines serves 6 flights to and from Kraków John Paul II International Airport.

Detailed airport info

Route map

Weather

Current weather

METAR

METAR

Metar data retrieved Sunday, 21 July 2024 at 19:25 UTC

EPKK 211900Z VRB01KT CAVOK 24/16 Q1010
Wind Temperature
1 kt 24c